LiveATC.Net - Listen to live air traffic control over the Internet!

ICAO: UKBB  IATA: KBP   Airport: Boryspil International Airport
City: Kyiv
Country: Ukraine   Continent: Europe
UKBB METAR Weather: UKBB 250730Z 15008MPS CAVOK 05/M03 Q1037 R18L/CLRD// TEMPO 15008G14MPS
UKBB Flight Activity (FlightAware)
UKBB Del/Gnd/Twr/Center
Feed Status: DOWN
Last heard on: 2016-10-25 08:30:04 (0 days 0 hours 1 minutes ago)
UKBB Del/Gnd/Twr/Center Audio Archives
Kyiv Approach122.775
Kyiv Approach124.675
Kyiv Approach127.725
Kyiv Approach128.175
Kyiv Center127.725
Kyiv Clearance Delivery130.275
Kyiv Ground118.050
Kyiv Ground127.925
Kyiv Radar120.625
Kyiv Radar125.300
Kyiv Radar131.375
Kyiv Radar132.375
Kyiv Radar133.050
Kyiv Radar135.150
Kyiv Radar135.825
Kyiv Radar136.400
Kyiv Tower119.300
Kyiv Tower119.650


Unauthorized use prohibited. See Terms of Service

Find LiveATC Audio Streams

Airport/ARTCC Code

(e.g., 124.400, 128.75)
Site-wide search

Browse LiveATC Feeds
LiveATC Coverage Map
Top 50 LiveATC Feeds
Bad Weather Areas

Offer a LiveATC Feed
Press Inquiries

LiveATC on iPhone
LiveATC on Android

Windows Phone
Windows 8/10

LiveATC Mobile
(Mobile browser)

ATC Audio Archives
Interesting Recordings

LiveATC Forums

Home Page
Make a Donation
LiveATC Store

Terms of Use
Privacy Policy

Canadian Air Freqs


FAA Airport Status
Nat'l Airspace Status
Arrival Demand Charts

Server Software By: